Time;durP1;ratioP1;P1;durP2;ratioP2;P2;SDS_P1;SDS_P2;PMS_P1;PMS_P2;Temp;Humidity;BMP_temperature;BMP_pressure;BME280_temperature;BME280_humidity;BME280_pressure;Samples;Min_cycle;Max_cycle;Signal;HPM_P1;HPM_P2
2022/09/24 00:00:57;;;;;;;26.20;15.32;;;;;;;;;;5042185;28;20029;-68
2022/09/24 00:03:25;;;;;;;26.45;14.75;;;;;;;;;;5039753;28;20379;-68
2022/09/24 00:05:51;;;;;;;31.67;14.52;;;;;;;;;;5041185;28;20029;-72
2022/09/24 00:08:18;;;;;;;24.60;13.70;;;;;;;;;;5041898;28;21405;-72
2022/09/24 00:10:47;;;;;;;30.98;14.57;;;;;;;;;;5040561;28;20033;-68
2022/09/24 00:13:16;;;;;;;25.33;14.02;;;;;;;;;;5040962;28;20025;-68
2022/09/24 00:15:48;;;;;;;22.80;14.13;;;;;;;;;;5042283;28;20025;-70
2022/09/24 00:18:15;;;;;;;23.30;14.05;;;;;;;;;;5041567;28;20030;-68
2022/09/24 00:20:41;;;;;;;24.35;14.10;;;;;;;;;;5040978;28;20057;-68
2022/09/24 00:23:08;;;;;;;26.08;13.63;;;;;;;;;;5042621;28;20379;-70
2022/09/24 00:28:24;;;;;;;22.67;13.80;;;;;;;;;;5040331;28;20080;-68
2022/09/24 00:30:51;;;;;;;23.83;13.70;;;;;;;;;;5041029;28;20489;-71
2022/09/24 00:33:17;;;;;;;24.17;14.52;;;;;;;;;;5041899;28;20029;-71
2022/09/24 00:35:42;;;;;;;30.90;13.98;;;;;;;;;;5039927;28;20029;-71
2022/09/24 00:38:08;;;;;;;21.52;12.32;;;;;;;;;;5041097;28;20025;-68
2022/09/24 00:40:36;;;;;;;23.02;12.23;;;;;;;;;;5041515;28;20455;-68
2022/09/24 00:43:02;;;;;;;22.23;13.60;;;;;;;;;;5039954;28;20025;-68
2022/09/24 00:45:29;;;;;;;22.13;13.10;;;;;;;;;;5040848;28;20032;-71
2022/09/24 00:47:57;;;;;;;23.33;13.15;;;;;;;;;;5045789;28;20022;-68
2022/09/24 00:50:32;;;;;;;24.50;13.23;;;;;;;;;;5041506;28;20029;-70
2022/09/24 00:53:07;;;;;;;22.17;14.00;;;;;;;;;;5044269;28;20056;-68
2022/09/24 00:55:36;;;;;;;22.23;13.27;;;;;;;;;;5039918;28;20029;-67
2022/09/24 00:58:04;;;;;;;24.38;12.93;;;;;;;;;;5035229;28;20041;-67
2022/09/24 01:00:31;;;;;;;23.92;13.60;;;;;;;;;;5030548;28;20463;-68
2022/09/24 01:03:03;;;;;;;25.13;12.18;;;;;;;;;;5030281;28;20022;-68
2022/09/24 01:05:29;;;;;;;20.80;12.52;;;;;;;;;;5030006;28;20025;-68
2022/09/24 01:07:55;;;;;;;21.02;13.23;;;;;;;;;;5030288;28;20536;-67
2022/09/24 01:10:50;;;;;;;19.80;12.75;;;;;;;;;;5030655;28;20034;-68
2022/09/24 01:13:41;;;;;;;25.52;13.60;;;;;;;;;;5030186;28;20498;-68
2022/09/24 01:16:30;;;;;;;23.63;13.38;;;;;;;;;;5033921;28;20059;-68
2022/09/24 01:19:30;;;;;;;20.30;12.30;;;;;;;;;;4991881;28;20094;-67
2022/09/24 01:22:02;;;;;;;22.05;12.48;;;;;;;;;;5002864;28;20097;-68
2022/09/24 01:24:37;;;;;;;18.60;11.60;;;;;;;;;;5011590;28;20091;-72
2022/09/24 01:27:05;;;;;;;19.23;11.18;;;;;;;;;;5011560;28;20418;-70
2022/09/24 01:29:50;;;;;;;18.55;11.43;;;;;;;;;;5011542;28;20045;-68
2022/09/24 01:32:33;;;;;;;21.40;11.38;;;;;;;;;;5011433;28;20492;-71
2022/09/24 01:35:01;;;;;;;21.40;11.27;;;;;;;;;;5011119;28;20314;-71
2022/09/24 01:37:30;;;;;;;15.80;10.57;;;;;;;;;;5011532;28;20033;-68
2022/09/24 01:39:57;;;;;;;19.05;11.20;;;;;;;;;;5011661;28;20033;-67
2022/09/24 01:42:26;;;;;;;19.92;10.73;;;;;;;;;;5011490;28;20050;-70
2022/09/24 01:44:53;;;;;;;19.20;11.57;;;;;;;;;;5011570;28;20053;-70
2022/09/24 01:47:31;;;;;;;20.15;10.55;;;;;;;;;;5011470;28;20100;-71
2022/09/24 01:49:56;;;;;;;19.38;11.35;;;;;;;;;;5011270;28;20045;-72
2022/09/24 01:52:29;;;;;;;16.42;10.68;;;;;;;;;;5011490;28;20034;-70
2022/09/24 01:54:56;;;;;;;14.98;10.63;;;;;;;;;;5012542;28;20527;-71
2022/09/24 01:57:26;;;;;;;17.98;10.73;;;;;;;;;;5053866;28;20071;-71
2022/09/24 02:00:16;;;;;;;19.60;11.75;;;;;;;;;;5053240;28;20103;-72
2022/09/24 02:03:20;;;;;;;21.23;11.88;;;;;;;;;;5053581;28;20033;-68
2022/09/24 02:06:02;;;;;;;18.42;11.32;;;;;;;;;;5049872;28;20033;-70
2022/09/24 02:08:40;;;;;;;17.17;11.57;;;;;;;;;;5053121;28;20103;-70
2022/09/24 02:11:16;;;;;;;23.55;12.00;;;;;;;;;;5053148;28;20036;-72
2022/09/24 02:14:13;;;;;;;16.52;10.90;;;;;;;;;;5052962;28;20037;-72
2022/09/24 02:16:45;;;;;;;18.02;11.60;;;;;;;;;;5053055;28;20028;-70
2022/09/24 02:19:15;;;;;;;17.23;11.45;;;;;;;;;;5052808;28;20029;-68
2022/09/24 02:21:43;;;;;;;17.55;10.68;;;;;;;;;;5052896;28;20124;-68
2022/09/24 02:24:28;;;;;;;18.02;11.32;;;;;;;;;;5053218;28;20032;-71
2022/09/24 02:26:54;;;;;;;17.42;10.82;;;;;;;;;;5052536;28;20029;-69
2022/09/24 02:29:19;;;;;;;20.58;10.65;;;;;;;;;;5052810;28;20025;-71
2022/09/24 02:31:51;;;;;;;16.48;10.23;;;;;;;;;;5052708;28;20075;-72
2022/09/24 02:34:26;;;;;;;22.42;11.25;;;;;;;;;;5052649;28;20048;-68
2022/09/24 02:36:54;;;;;;;17.00;10.25;;;;;;;;;;5052641;28;20090;-68
2022/09/24 02:39:20;;;;;;;15.95;10.68;;;;;;;;;;5052591;28;20470;-68
2022/09/24 02:41:48;;;;;;;15.50;10.18;;;;;;;;;;5052345;28;20118;-70
2022/09/24 02:44:17;;;;;;;20.98;11.10;;;;;;;;;;5052734;28;20032;-67
2022/09/24 02:46:46;;;;;;;18.45;10.35;;;;;;;;;;5052553;28;20025;-70
2022/09/24 02:49:13;;;;;;;17.40;10.75;;;;;;;;;;5051978;28;20429;-70
2022/09/24 02:51:39;;;;;;;17.08;11.13;;;;;;;;;;5052340;28;20053;-69
2022/09/24 02:54:05;;;;;;;18.10;10.57;;;;;;;;;;5052375;28;20033;-69
2022/09/24 02:56:31;;;;;;;15.40;10.43;;;;;;;;;;5052237;28;20105;-71
2022/09/24 02:58:57;;;;;;;16.30;10.63;;;;;;;;;;5052145;28;20086;-68
2022/09/24 03:01:23;;;;;;;16.60;9.80;;;;;;;;;;5052132;28;20056;-71
2022/09/24 03:03:51;;;;;;;21.02;12.23;;;;;;;;;;5051892;28;20060;-71
2022/09/24 03:06:17;;;;;;;30.90;15.48;;;;;;;;;;5051916;28;20052;-71
2022/09/24 03:08:43;;;;;;;22.80;12.60;;;;;;;;;;5052050;28;20053;-71
2022/09/24 03:11:10;;;;;;;22.42;12.63;;;;;;;;;;5051993;28;20025;-68
2022/09/24 03:13:36;;;;;;;21.95;12.55;;;;;;;;;;5051847;28;20048;-71
2022/09/24 03:16:03;;;;;;;20.65;14.35;;;;;;;;;;5051683;28;20025;-71
2022/09/24 03:18:29;;;;;;;26.83;14.75;;;;;;;;;;5051579;28;20031;-71
2022/09/24 03:21:07;;;;;;;25.35;14.77;;;;;;;;;;5051336;28;20108;-71
2022/09/24 03:23:33;;;;;;;28.55;13.82;;;;;;;;;;5050450;28;20056;-69
2022/09/24 03:25:59;;;;;;;21.45;13.15;;;;;;;;;;5051647;28;20500;-71
2022/09/24 03:28:25;;;;;;;28.92;16.38;;;;;;;;;;5050396;28;20044;-70
2022/09/24 03:30:59;;;;;;;35.60;18.38;;;;;;;;;;5051454;28;20035;-68
2022/09/24 03:33:33;;;;;;;34.40;17.02;;;;;;;;;;5051744;28;20024;-69
2022/09/24 03:36:07;;;;;;;29.67;15.68;;;;;;;;;;5051392;28;20185;-68
2022/09/24 03:38:33;;;;;;;33.78;18.05;;;;;;;;;;5050596;28;20079;-68
2022/09/24 03:41:00;;;;;;;37.88;17.77;;;;;;;;;;5051294;28;20028;-71
2022/09/24 03:43:26;;;;;;;44.20;19.55;;;;;;;;;;5051446;28;20033;-68
2022/09/24 03:45:52;;;;;;;41.88;17.88;;;;;;;;;;5051057;28;20055;-67
2022/09/24 03:48:19;;;;;;;37.90;18.92;;;;;;;;;;5051246;28;20029;-69
2022/09/24 03:50:45;;;;;;;41.33;20.08;;;;;;;;;;5051434;28;20033;-71
2022/09/24 03:53:11;;;;;;;37.38;18.80;;;;;;;;;;5051487;28;20020;-68
2022/09/24 03:55:54;;;;;;;35.10;19.23;;;;;;;;;;5051244;28;20090;-68
2022/09/24 03:58:20;;;;;;;37.97;19.02;;;;;;;;;;5051476;28;20108;-69
2022/09/24 04:00:46;;;;;;;42.13;20.25;;;;;;;;;;5051004;28;20083;-68
2022/09/24 04:03:11;;;;;;;42.80;20.95;;;;;;;;;;5051185;28;20025;-68
2022/09/24 04:05:37;;;;;;;39.33;20.67;;;;;;;;;;5051242;28;20029;-67
2022/09/24 04:08:04;;;;;;;38.85;19.60;;;;;;;;;;5051046;28;20033;-70
2022/09/24 04:10:30;;;;;;;39.63;19.73;;;;;;;;;;5051350;28;20025;-68
2022/09/24 04:12:55;;;;;;;38.10;19.30;;;;;;;;;;5051315;28;20443;-69
2022/09/24 04:15:22;;;;;;;34.17;17.30;;;;;;;;;;5051447;28;20100;-68
2022/09/24 04:17:54;;;;;;;32.80;17.30;;;;;;;;;;5049553;28;20029;-67
2022/09/24 04:20:21;;;;;;;37.92;18.02;;;;;;;;;;5050887;28;20044;-70
2022/09/24 04:22:48;;;;;;;33.00;16.17;;;;;;;;;;5050746;28;20056;-68
2022/09/24 04:25:13;;;;;;;34.08;17.08;;;;;;;;;;5050894;28;20096;-68
2022/09/24 04:27:40;;;;;;;32.40;16.73;;;;;;;;;;5050989;28;20116;-67
2022/09/24 04:30:06;;;;;;;27.92;15.55;;;;;;;;;;5051410;28;20018;-68
2022/09/24 04:32:32;;;;;;;39.05;18.38;;;;;;;;;;5051282;28;20033;-67
2022/09/24 04:34:57;;;;;;;27.75;16.50;;;;;;;;;;5050818;28;20103;-67
2022/09/24 04:37:23;;;;;;;25.58;14.68;;;;;;;;;;5050668;28;20386;-71
2022/09/24 04:39:48;;;;;;;23.58;14.43;;;;;;;;;;5050863;28;20037;-71
2022/09/24 04:42:17;;;;;;;27.20;14.65;;;;;;;;;;5050721;28;20044;-71
2022/09/24 04:44:46;;;;;;;23.95;13.80;;;;;;;;;;5050969;28;20033;-71
2022/09/24 04:47:14;;;;;;;30.40;15.57;;;;;;;;;;5050787;28;20095;-71
2022/09/24 04:49:44;;;;;;;31.95;16.63;;;;;;;;;;5053218;28;20355;-71
2022/09/24 04:52:13;;;;;;;31.02;15.45;;;;;;;;;;5054895;28;20028;-71
2022/09/24 04:54:46;;;;;;;28.15;14.82;;;;;;;;;;5054778;28;20098;-71
2022/09/24 04:57:15;;;;;;;25.45;14.40;;;;;;;;;;5054797;28;20082;-71
2022/09/24 04:59:40;;;;;;;22.23;12.70;;;;;;;;;;5054196;28;20090;-71
2022/09/24 05:02:07;;;;;;;25.60;13.73;;;;;;;;;;5054633;28;20029;-71
2022/09/24 05:04:34;;;;;;;25.90;12.98;;;;;;;;;;5054458;28;20612;-71
2022/09/24 05:07:00;;;;;;;27.15;13.57;;;;;;;;;;5054303;28;20112;-71
2022/09/24 05:09:25;;;;;;;29.52;13.75;;;;;;;;;;5054302;28;20113;-71
2022/09/24 05:11:51;;;;;;;22.88;13.18;;;;;;;;;;5054104;28;20032;-70
2022/09/24 05:14:16;;;;;;;24.50;13.38;;;;;;;;;;5053993;28;20032;-71
2022/09/24 05:16:42;;;;;;;24.67;13.20;;;;;;;;;;5054154;28;20079;-71
2022/09/24 05:19:07;;;;;;;21.42;12.13;;;;;;;;;;5054185;28;20025;-68
2022/09/24 05:21:33;;;;;;;29.42;13.10;;;;;;;;;;5053739;28;20049;-67
2022/09/24 05:23:58;;;;;;;25.95;13.38;;;;;;;;;;5053993;28;20025;-70
2022/09/24 05:29:27;;;;;;;23.63;12.57;;;;;;;;;;4992298;28;20030;-71
2022/09/24 05:31:53;;;;;;;24.48;12.63;;;;;;;;;;4992275;28;20030;-72
2022/09/24 05:34:19;;;;;;;22.98;13.93;;;;;;;;;;4992321;28;20038;-71
2022/09/24 05:36:44;;;;;;;23.92;12.32;;;;;;;;;;4992124;28;20081;-72
2022/09/24 05:39:12;;;;;;;27.20;12.82;;;;;;;;;;4992157;28;20038;-70
2022/09/24 05:41:38;;;;;;;24.52;12.30;;;;;;;;;;4991814;28;20042;-68
2022/09/24 05:44:04;;;;;;;26.50;12.52;;;;;;;;;;4992030;28;20496;-70
2022/09/24 05:46:30;;;;;;;23.92;12.73;;;;;;;;;;4991940;28;20499;-71
2022/09/24 05:48:56;;;;;;;20.55;13.00;;;;;;;;;;4991909;28;20618;-71
2022/09/24 05:51:21;;;;;;;22.52;13.63;;;;;;;;;;4990948;28;20039;-67
2022/09/24 05:53:47;;;;;;;26.13;12.70;;;;;;;;;;4991972;28;20104;-67
2022/09/24 05:56:13;;;;;;;21.75;12.93;;;;;;;;;;4991596;28;20092;-69
2022/09/24 05:58:38;;;;;;;25.13;13.18;;;;;;;;;;4975293;28;20026;-67
2022/09/24 06:01:04;;;;;;;20.65;12.80;;;;;;;;;;5026399;28;20550;-69
2022/09/24 06:03:30;;;;;;;21.23;12.55;;;;;;;;;;5033467;28;20017;-67
2022/09/24 06:05:58;;;;;;;24.70;13.57;;;;;;;;;;5033236;28;20029;-71
2022/09/24 06:08:24;;;;;;;24.83;13.18;;;;;;;;;;5033143;28;20030;-68
2022/09/24 06:10:49;;;;;;;23.08;13.00;;;;;;;;;;5033113;28;20029;-69
2022/09/24 06:13:19;;;;;;;16.40;11.80;;;;;;;;;;5033328;28;20037;-68
2022/09/24 06:15:45;;;;;;;20.02;10.23;;;;;;;;;;5031945;28;20152;-69
2022/09/24 06:18:11;;;;;;;18.10;9.93;;;;;;;;;;5033167;28;20498;-68
2022/09/24 06:20:37;;;;;;;18.25;10.85;;;;;;;;;;5033370;28;20056;-69
2022/09/24 06:23:03;;;;;;;33.05;19.15;;;;;;;;;;5053050;28;20126;-69
2022/09/24 06:25:29;;;;;;;36.22;21.17;;;;;;;;;;5052583;28;20068;-70
2022/09/24 06:28:00;;;;;;;44.60;27.48;;;;;;;;;;5053030;28;20025;-69
2022/09/24 06:30:28;;;;;;;26.23;15.55;;;;;;;;;;5052825;28;20060;-69
2022/09/24 06:32:54;;;;;;;35.97;22.30;;;;;;;;;;5052847;28;20555;-71
2022/09/24 06:35:19;;;;;;;31.75;20.40;;;;;;;;;;5052991;28;20071;-69
2022/09/24 06:37:48;;;;;;;27.95;15.88;;;;;;;;;;5052715;28;20082;-70
2022/09/24 06:40:14;;;;;;;19.42;10.68;;;;;;;;;;5052441;28;20021;-69
2022/09/24 06:42:39;;;;;;;19.55;11.30;;;;;;;;;;5052584;28;20072;-70
2022/09/24 06:45:06;;;;;;;19.98;13.88;;;;;;;;;;5052789;28;20025;-69
2022/09/24 06:47:31;;;;;;;14.88;8.77;;;;;;;;;;5052419;28;20029;-69
2022/09/24 06:49:56;;;;;;;12.55;8.85;;;;;;;;;;5052483;28;20113;-69
2022/09/24 06:52:22;;;;;;;16.20;9.13;;;;;;;;;;5052517;28;20024;-67
2022/09/24 06:54:47;;;;;;;12.40;8.02;;;;;;;;;;5051964;28;20107;-68
2022/09/24 06:57:14;;;;;;;16.50;8.38;;;;;;;;;;5052161;28;20025;-69
2022/09/24 06:59:40;;;;;;;12.55;7.57;;;;;;;;;;5052246;28;20060;-69
2022/09/24 07:02:09;;;;;;;11.95;7.15;;;;;;;;;;5052131;28;20061;-68
2022/09/24 07:04:34;;;;;;;13.30;7.13;;;;;;;;;;5051989;28;20025;-69
2022/09/24 07:09:44;;;;;;;10.60;6.72;;;;;;;;;;5051985;28;20135;-68
2022/09/24 07:12:10;;;;;;;11.35;6.57;;;;;;;;;;5051778;28;20509;-71
2022/09/24 07:14:35;;;;;;;8.77;6.40;;;;;;;;;;5051846;28;20090;-69
2022/09/24 07:17:01;;;;;;;10.00;6.25;;;;;;;;;;5051922;28;20493;-69
2022/09/24 07:19:26;;;;;;;10.75;6.63;;;;;;;;;;5051834;28;20025;-69
2022/09/24 07:21:52;;;;;;;9.27;6.13;;;;;;;;;;5051406;28;20041;-72
2022/09/24 07:24:17;;;;;;;9.50;6.53;;;;;;;;;;5051539;28;20163;-69
2022/09/24 07:26:43;;;;;;;9.77;6.25;;;;;;;;;;5051667;28;20019;-69
2022/09/24 07:29:08;;;;;;;8.20;5.80;;;;;;;;;;5051676;28;20051;-69
2022/09/24 07:31:35;;;;;;;9.68;6.57;;;;;;;;;;5051592;28;20333;-70
2022/09/24 07:34:00;;;;;;;10.98;6.50;;;;;;;;;;5051540;28;20489;-71
2022/09/24 07:36:25;;;;;;;14.57;6.75;;;;;;;;;;5050214;28;20029;-71
2022/09/24 07:38:51;;;;;;;11.55;6.57;;;;;;;;;;5051277;28;20017;-68
2022/09/24 07:41:17;;;;;;;17.83;7.55;;;;;;;;;;5051324;28;20040;-69
2022/09/24 07:43:43;;;;;;;11.80;6.88;;;;;;;;;;5051446;28;20056;-69
2022/09/24 07:46:08;;;;;;;11.05;5.82;;;;;;;;;;5051351;28;20477;-68
2022/09/24 07:48:33;;;;;;;13.85;7.00;;;;;;;;;;5051228;28;20441;-70
2022/09/24 07:50:59;;;;;;;12.82;5.78;;;;;;;;;;5051553;28;20033;-71
2022/09/24 07:53:24;;;;;;;8.77;6.07;;;;;;;;;;5049920;28;20017;-71
2022/09/24 07:55:51;;;;;;;9.93;6.28;;;;;;;;;;5051271;28;20032;-72
2022/09/24 07:58:17;;;;;;;8.15;5.97;;;;;;;;;;5051089;28;20033;-71
2022/09/24 08:00:42;;;;;;;12.00;6.18;;;;;;;;;;5051084;28;20083;-66
2022/09/24 08:03:08;;;;;;;8.10;5.60;;;;;;;;;;5051044;28;20082;-66
2022/09/24 08:05:33;;;;;;;10.43;6.60;;;;;;;;;;5050902;28;20108;-68
2022/09/24 08:07:59;;;;;;;13.45;6.70;;;;;;;;;;5050944;28;20024;-69
2022/09/24 08:10:27;;;;;;;10.48;6.97;;;;;;;;;;5051057;28;20075;-70
2022/09/24 08:12:53;;;;;;;11.30;6.90;;;;;;;;;;5051026;28;20033;-67
2022/09/24 08:15:18;;;;;;;9.77;6.82;;;;;;;;;;5050927;28;20033;-67
2022/09/24 08:17:44;;;;;;;8.45;6.53;;;;;;;;;;5050942;28;20021;-67
2022/09/24 08:20:10;;;;;;;8.93;6.00;;;;;;;;;;5050895;28;20068;-67
2022/09/24 08:22:36;;;;;;;9.07;6.35;;;;;;;;;;5050546;28;20422;-67
2022/09/24 08:25:03;;;;;;;11.30;6.32;;;;;;;;;;5054118;28;20028;-67
2022/09/24 08:27:28;;;;;;;9.07;6.03;;;;;;;;;;5054683;28;20599;-69
2022/09/24 08:29:55;;;;;;;10.02;6.45;;;;;;;;;;5055024;28;20116;-66
2022/09/24 08:32:20;;;;;;;9.63;6.80;;;;;;;;;;5054948;28;20059;-67
2022/09/24 08:34:46;;;;;;;7.15;5.70;;;;;;;;;;5055082;28;20458;-67
2022/09/24 08:37:12;;;;;;;10.98;6.18;;;;;;;;;;5053442;28;20458;-67
2022/09/24 08:39:38;;;;;;;11.85;7.13;;;;;;;;;;5054890;28;20087;-67
2022/09/24 08:42:14;;;;;;;9.43;6.35;;;;;;;;;;5054924;28;20036;-67
2022/09/24 08:47:44;;;;;;;15.82;7.22;;;;;;;;;;5054309;28;20385;-67
2022/09/24 08:50:12;;;;;;;9.85;6.20;;;;;;;;;;5054545;28;20394;-67
2022/09/24 08:52:48;;;;;;;8.77;6.22;;;;;;;;;;5054585;28;20127;-67
2022/09/24 08:55:20;;;;;;;13.52;6.50;;;;;;;;;;5054729;28;20020;-67
2022/09/24 08:58:03;;;;;;;10.90;6.25;;;;;;;;;;5054561;28;20032;-67
2022/09/24 09:00:33;;;;;;;9.05;6.50;;;;;;;;;;5054491;28;20445;-67
2022/09/24 09:03:25;;;;;;;;;;;;;;;;;;5054887;28;20033;-67
2022/09/24 09:06:00;;;;;;;12.82;6.38;;;;;;;;;;4992278;28;20064;-68
2022/09/24 09:08:57;;;;;;;10.10;6.50;;;;;;;;;;4992506;28;20488;-67
2022/09/24 09:11:29;;;;;;;9.68;6.05;;;;;;;;;;4992689;28;20511;-67
2022/09/24 09:14:01;;;;;;;9.88;6.25;;;;;;;;;;4992669;28;20041;-67
2022/09/24 09:16:36;;;;;;;9.70;6.50;;;;;;;;;;4992738;28;20034;-68
2022/09/24 09:19:07;;;;;;;9.35;6.25;;;;;;;;;;4992246;28;20432;-67
2022/09/24 09:21:51;;;;;;;8.07;5.70;;;;;;;;;;4992087;28;20133;-69
2022/09/24 09:24:25;;;;;;;9.43;5.88;;;;;;;;;;4976186;28;20035;-69
2022/09/24 09:26:54;;;;;;;10.93;6.07;;;;;;;;;;4992333;28;20109;-67
2022/09/24 09:29:26;;;;;;;11.00;5.53;;;;;;;;;;4992449;28;20042;-68
2022/09/24 09:32:44;;;;;;;7.75;5.22;;;;;;;;;;4992396;28;20034;-69
2022/09/24 09:35:47;;;;;;;8.65;5.78;;;;;;;;;;4990746;28;20113;-66
2022/09/24 09:38:22;;;;;;;8.82;5.32;;;;;;;;;;4978596;28;20112;-69
2022/09/24 09:40:56;;;;;;;12.55;5.55;;;;;;;;;;4972846;28;20030;-65
2022/09/24 09:43:24;;;;;;;8.70;5.63;;;;;;;;;;5021206;28;20038;-66
2022/09/24 09:46:08;;;;;;;15.73;6.03;;;;;;;;;;5033629;28;20026;-70
2022/09/24 09:48:44;;;;;;;9.40;6.30;;;;;;;;;;5033524;28;20095;-67
2022/09/24 09:51:18;;;;;;;9.38;5.88;;;;;;;;;;5033678;28;20061;-67
2022/09/24 09:53:57;;;;;;;8.50;5.55;;;;;;;;;;5047842;28;20116;-67
2022/09/24 09:56:28;;;;;;;8.95;4.90;;;;;;;;;;5041150;28;20462;-67
2022/09/24 09:59:21;;;;;;;7.18;4.90;;;;;;;;;;5044178;28;20389;-67
2022/09/24 10:01:54;;;;;;;8.13;5.05;;;;;;;;;;5051344;28;20490;-67
2022/09/24 10:04:31;;;;;;;9.77;5.63;;;;;;;;;;5053183;28;20112;-67
2022/09/24 10:07:13;;;;;;;8.75;4.97;;;;;;;;;;5053233;28;20104;-67
2022/09/24 10:09:41;;;;;;;8.95;5.93;;;;;;;;;;5053287;28;20179;-70
2022/09/24 10:12:12;;;;;;;8.85;5.05;;;;;;;;;;5053234;28;20028;-68
2022/09/24 10:14:38;;;;;;;9.60;5.35;;;;;;;;;;5052921;28;20025;-68
2022/09/24 10:17:04;;;;;;;9.90;5.60;;;;;;;;;;5053092;28;20021;-67
2022/09/24 10:19:34;;;;;;;11.57;6.05;;;;;;;;;;5052374;28;20367;-67
2022/09/24 10:22:14;;;;;;;7.85;5.32;;;;;;;;;;5052739;28;20056;-68
2022/09/24 10:24:42;;;;;;;10.40;5.40;;;;;;;;;;5053204;28;20537;-67
2022/09/24 10:27:13;;;;;;;8.65;5.82;;;;;;;;;;5050455;28;20029;-69
2022/09/24 10:32:28;;;;;;;10.63;5.57;;;;;;;;;;5050694;28;20143;-69
2022/09/24 10:34:59;;;;;;;11.77;4.93;;;;;;;;;;5049073;28;20112;-70
2022/09/24 10:37:26;;;;;;;10.77;6.20;;;;;;;;;;5052606;28;20033;-68
2022/09/24 10:40:09;;;;;;;8.65;5.65;;;;;;;;;;5052706;28;20028;-68
2022/09/24 10:42:35;;;;;;;7.07;5.18;;;;;;;;;;5052462;28;20081;-67
2022/09/24 10:45:03;;;;;;;9.05;5.30;;;;;;;;;;5052544;28;20021;-67
2022/09/24 10:47:47;;;;;;;8.18;5.50;;;;;;;;;;5050096;28;20037;-67
2022/09/24 10:50:45;;;;;;;10.82;5.57;;;;;;;;;;5050746;28;20047;-67
2022/09/24 10:53:23;;;;;;;9.23;5.95;;;;;;;;;;5050718;28;20402;-69
2022/09/24 10:56:04;;;;;;;6.70;5.45;;;;;;;;;;5050719;28;20025;-68
2022/09/24 10:59:11;;;;;;;7.93;5.53;;;;;;;;;;5051423;28;20017;-68
2022/09/24 11:01:51;;;;;;;9.93;5.50;;;;;;;;;;5028525;28;20484;-70
2022/09/24 11:04:34;;;;;;;9.80;6.10;;;;;;;;;;5029626;28;20068;-69
2022/09/24 11:07:21;;;;;;;12.27;7.03;;;;;;;;;;5029768;28;20037;-68
2022/09/24 11:10:08;;;;;;;9.60;5.68;;;;;;;;;;5029777;28;20038;-67
2022/09/24 11:12:56;;;;;;;9.73;6.22;;;;;;;;;;4932322;29;20499;-70
2022/09/24 11:15:41;;;;;;;9.27;5.90;;;;;;;;;;4932309;29;20039;-70
2022/09/24 11:18:31;;;;;;;12.07;6.28;;;;;;;;;;4932550;29;20043;-72
2022/09/24 11:21:17;;;;;;;14.60;6.60;;;;;;;;;;4928844;29;20048;-69
2022/09/24 11:23:42;;;;;;;8.88;6.13;;;;;;;;;;4875779;29;20419;-72
2022/09/24 11:26:31;;;;;;;10.20;6.85;;;;;;;;;;4875909;29;20112;-71
2022/09/24 11:29:54;;;;;;;14.13;7.68;;;;;;;;;;4875597;29;20045;-70
2022/09/24 11:32:25;;;;;;;10.15;7.20;;;;;;;;;;4838696;29;20081;-70
2022/09/24 11:35:20;;;;;;;10.77;7.07;;;;;;;;;;4838640;29;20412;-70
2022/09/24 11:38:00;;;;;;;11.43;7.18;;;;;;;;;;4838599;29;20049;-72
2022/09/24 11:40:56;;;;;;;12.25;7.47;;;;;;;;;;4838596;29;20523;-69
2022/09/24 11:44:03;;;;;;;13.35;7.38;;;;;;;;;;4838686;29;20044;-68
2022/09/24 11:46:46;;;;;;;16.00;7.90;;;;;;;;;;4838490;29;20086;-67
2022/09/24 11:49:32;;;;;;;9.88;6.80;;;;;;;;;;4860119;29;20050;-68
2022/09/24 11:52:19;;;;;;;11.32;6.88;;;;;;;;;;4912693;29;20059;-67
2022/09/24 11:55:22;;;;;;;10.45;6.88;;;;;;;;;;4912986;29;20040;-68
2022/09/24 11:58:08;;;;;;;11.43;7.05;;;;;;;;;;4856364;29;20041;-67
2022/09/24 12:00:42;;;;;;;10.02;6.82;;;;;;;;;;4877880;29;20534;-67
2022/09/24 12:03:37;;;;;;;11.85;7.07;;;;;;;;;;4941508;28;20039;-67
2022/09/24 12:06:12;;;;;;;9.93;6.05;;;;;;;;;;4963664;28;20043;-68
2022/09/24 12:08:45;;;;;;;10.48;6.88;;;;;;;;;;4969855;28;20051;-70
2022/09/24 12:11:27;;;;;;;12.55;7.88;;;;;;;;;;4970180;28;20035;-67
2022/09/24 12:14:04;;;;;;;11.32;7.35;;;;;;;;;;4970078;28;20421;-67
2022/09/24 12:16:35;;;;;;;9.73;6.95;;;;;;;;;;4969890;28;20037;-67
2022/09/24 12:19:16;;;;;;;10.07;6.82;;;;;;;;;;4966533;28;20030;-68
2022/09/24 12:21:45;;;;;;;10.57;6.75;;;;;;;;;;4963622;28;20047;-67
2022/09/24 12:24:24;;;;;;;9.45;6.90;;;;;;;;;;4960736;28;20149;-68
2022/09/24 12:26:52;;;;;;;9.03;6.53;;;;;;;;;;4960033;28;20074;-67
2022/09/24 12:32:54;;;;;;;12.20;7.88;;;;;;;;;;4962744;28;20038;-68
2022/09/24 12:35:58;;;;;;;10.57;7.30;;;;;;;;;;5029760;28;20037;-68
2022/09/24 12:39:11;;;;;;;12.55;7.25;;;;;;;;;;5043511;28;20025;-68
2022/09/24 12:41:44;;;;;;;11.27;7.68;;;;;;;;;;5043921;28;20056;-70
2022/09/24 12:44:10;;;;;;;11.82;7.50;;;;;;;;;;5043384;28;20036;-67
2022/09/24 12:46:43;;;;;;;14.65;7.38;;;;;;;;;;5046263;28;20020;-68
2022/09/24 12:49:31;;;;;;;9.07;6.78;;;;;;;;;;5050753;28;20025;-68
2022/09/24 12:52:00;;;;;;;9.48;6.82;;;;;;;;;;5050692;28;20147;-69
2022/09/24 12:54:36;;;;;;;9.77;6.75;;;;;;;;;;5050903;28;20025;-67
2022/09/24 12:57:26;;;;;;;10.45;7.18;;;;;;;;;;5051672;28;20478;-67
2022/09/24 12:59:57;;;;;;;9.85;7.05;;;;;;;;;;5059262;28;20047;-67
2022/09/24 13:02:27;;;;;;;8.00;6.55;;;;;;;;;;5054811;28;20044;-67
2022/09/24 13:05:01;;;;;;;11.37;6.77;;;;;;;;;;5066872;28;20032;-67
2022/09/24 13:07:35;;;;;;;13.80;7.10;;;;;;;;;;5049007;28;20378;-67
2022/09/24 13:10:16;;;;;;;9.80;6.90;;;;;;;;;;5053932;28;20033;-67
2022/09/24 13:12:43;;;;;;;10.85;7.10;;;;;;;;;;5068628;28;20470;-67
2022/09/24 13:15:32;;;;;;;12.10;8.27;;;;;;;;;;5070714;28;20024;-67
2022/09/24 13:18:07;;;;;;;10.73;7.47;;;;;;;;;;5057663;28;20017;-68
2022/09/24 13:20:34;;;;;;;8.85;6.25;;;;;;;;;;5048567;28;20049;-67
2022/09/24 13:23:19;;;;;;;11.35;7.53;;;;;;;;;;5052575;28;20082;-67
2022/09/24 13:25:58;;;;;;;12.15;6.97;;;;;;;;;;5049355;28;20363;-67
2022/09/24 13:28:27;;;;;;;10.90;6.60;;;;;;;;;;5052473;28;20515;-68
2022/09/24 13:31:20;;;;;;;12.07;6.68;;;;;;;;;;5051131;28;20266;-67
2022/09/24 13:33:53;;;;;;;9.68;6.90;;;;;;;;;;5058185;28;20036;-68
2022/09/24 13:36:41;;;;;;;9.43;6.60;;;;;;;;;;5056399;28;20041;-68
2022/09/24 13:39:12;;;;;;;8.70;6.57;;;;;;;;;;5046360;28;20296;-68
2022/09/24 13:42:18;;;;;;;8.95;6.50;;;;;;;;;;5047500;28;20461;-69
2022/09/24 13:45:05;;;;;;;9.88;6.18;;;;;;;;;;4987835;28;20034;-69
2022/09/24 13:47:42;;;;;;;10.23;6.22;;;;;;;;;;4995070;28;20030;-68
2022/09/24 13:50:31;;;;;;;10.10;5.68;;;;;;;;;;5012537;28;20045;-68
2022/09/24 13:53:06;;;;;;;10.00;6.05;;;;;;;;;;5012408;28;20487;-68
2022/09/24 13:55:46;;;;;;;14.73;9.18;;;;;;;;;;4984183;28;20046;-68
2022/09/24 13:58:44;;;;;;;;;;;;;;;;;;4986742;28;20114;-68
2022/09/24 14:01:14;;;;;;;11.13;6.57;;;;;;;;;;4942054;29;19962;-68
2022/09/24 14:03:40;;;;;;;;;;;;;;;;;;4942144;29;20389;-67
2022/09/24 14:06:11;;;;;;;13.80;7.53;;;;;;;;;;4944402;29;19922;-68
2022/09/24 14:08:41;;;;;;;9.88;5.50;;;;;;;;;;4938666;29;20040;-69
2022/09/24 14:11:17;;;;;;;10.73;6.45;;;;;;;;;;4934729;29;20047;-68
2022/09/24 14:13:46;;;;;;;11.63;5.20;;;;;;;;;;4934694;29;20476;-66
2022/09/24 14:16:19;;;;;;;10.45;6.97;;;;;;;;;;4980452;28;20115;-68
2022/09/24 14:18:46;;;;;;;24.42;10.30;;;;;;;;;;4992682;28;20026;-68
2022/09/24 14:21:26;;;;;;;12.75;7.25;;;;;;;;;;4996148;28;20037;-68
2022/09/24 14:24:00;;;;;;;;;;;;;;;;;;5012420;28;20376;-68
2022/09/24 14:26:41;;;;;;;8.85;5.47;;;;;;;;;;5011906;28;19922;-68
2022/09/24 14:29:13;;;;;;;10.48;8.02;;;;;;;;;;5011627;28;20030;-69
2022/09/24 14:31:49;;;;;;;8.75;5.25;;;;;;;;;;5011982;28;20042;-67
2022/09/24 14:34:25;;;;;;;14.60;8.95;;;;;;;;;;5012045;28;20022;-67
2022/09/24 14:36:53;;;;;;;8.38;6.57;;;;;;;;;;5034583;28;20037;-68
2022/09/24 14:39:22;;;;;;;9.82;6.60;;;;;;;;;;5053499;28;20029;-70
2022/09/24 14:41:48;;;;;;;10.00;6.87;;;;;;;;;;5053706;28;20079;-70
2022/09/24 14:44:25;;;;;;;9.18;6.43;;;;;;;;;;5053482;28;20036;-70
2022/09/24 14:46:54;;;;;;;12.95;7.60;;;;;;;;;;5053243;28;20028;-70
2022/09/24 14:49:31;;;;;;;9.65;5.63;;;;;;;;;;5053478;28;20131;-70
2022/09/24 14:51:57;;;;;;;12.07;7.85;;;;;;;;;;5053314;28;20025;-71
2022/09/24 14:54:41;;;;;;;53.75;33.65;;;;;;;;;;5053278;28;20470;-70
2022/09/24 14:57:17;;;;;;;14.65;8.90;;;;;;;;;;5052969;28;20029;-70
2022/09/24 14:59:43;;;;;;;17.98;12.02;;;;;;;;;;5052913;28;20025;-71
2022/09/24 15:02:28;;;;;;;12.43;7.13;;;;;;;;;;5053100;28;20040;-69
2022/09/24 15:04:59;;;;;;;10.90;6.32;;;;;;;;;;5053283;28;20033;-70
2022/09/24 15:07:27;;;;;;;13.80;6.35;;;;;;;;;;5052884;28;20016;-69
2022/09/24 15:10:00;;;;;;;10.80;7.13;;;;;;;;;;5052850;28;20064;-67
2022/09/24 15:12:30;;;;;;;17.02;7.35;;;;;;;;;;5052692;28;20028;-68
2022/09/24 15:15:01;;;;;;;12.05;6.47;;;;;;;;;;5053087;28;20371;-70
2022/09/24 15:17:32;;;;;;;8.90;6.50;;;;;;;;;;5052949;28;20098;-69